sensor_id;sensor_type;location;lat;lon;timestamp;temperature;humidity
9006;DHT22;62284;50.702;7.140;2022-09-09T00:00:19;18.80;98.80
9006;DHT22;62284;50.702;7.140;2022-09-09T00:02:51;18.70;99.10
9006;DHT22;62284;50.702;7.140;2022-09-09T00:05:26;18.60;99.10
9006;DHT22;62284;50.702;7.140;2022-09-09T00:07:59;18.60;99.10
9006;DHT22;62284;50.702;7.140;2022-09-09T00:10:32;18.50;99.30
9006;DHT22;62284;50.702;7.140;2022-09-09T00:13:05;18.40;99.50
9006;DHT22;62284;50.702;7.140;2022-09-09T00:15:40;18.30;99.70
9006;DHT22;62284;50.702;7.140;2022-09-09T00:18:17;18.10;99.90
9006;DHT22;62284;50.702;7.140;2022-09-09T00:20:52;18.20;99.90
9006;DHT22;62284;50.702;7.140;2022-09-09T00:23:28;18.30;99.80
9006;DHT22;62284;50.702;7.140;2022-09-09T00:26:03;18.30;99.70
9006;DHT22;62284;50.702;7.140;2022-09-09T00:28:35;18.30;99.90
9006;DHT22;62284;50.702;7.140;2022-09-09T00:31:11;18.30;99.90
9006;DHT22;62284;50.702;7.140;2022-09-09T00:33:38;18.40;99.90
9006;DHT22;62284;50.702;7.140;2022-09-09T00:36:12;18.20;99.90
9006;DHT22;62284;50.702;7.140;2022-09-09T00:38:43;18.10;99.90
9006;DHT22;62284;50.702;7.140;2022-09-09T00:41:17;18.10;99.90
9006;DHT22;62284;50.702;7.140;2022-09-09T00:43:55;18.10;99.90
9006;DHT22;62284;50.702;7.140;2022-09-09T00:46:41;18.00;99.90
9006;DHT22;62284;50.702;7.140;2022-09-09T00:49:19;17.90;99.90
9006;DHT22;62284;50.702;7.140;2022-09-09T00:51:56;17.90;99.90
9006;DHT22;62284;50.702;7.140;2022-09-09T00:54:33;18.00;99.90
9006;DHT22;62284;50.702;7.140;2022-09-09T00:57:13;18.00;99.90
9006;DHT22;62284;50.702;7.140;2022-09-09T00:59:47;17.80;99.90
9006;DHT22;62284;50.702;7.140;2022-09-09T01:02:25;17.70;99.90
9006;DHT22;62284;50.702;7.140;2022-09-09T01:04:54;17.80;99.90
9006;DHT22;62284;50.702;7.140;2022-09-09T01:07:22;17.80;99.90
9006;DHT22;62284;50.702;7.140;2022-09-09T01:09:55;17.90;99.90
9006;DHT22;62284;50.702;7.140;2022-09-09T01:12:30;18.00;99.90
9006;DHT22;62284;50.702;7.140;2022-09-09T01:15:07;18.00;99.90
9006;DHT22;62284;50.702;7.140;2022-09-09T01:17:39;18.10;99.90
9006;DHT22;62284;50.702;7.140;2022-09-09T01:20:13;18.10;99.90
9006;DHT22;62284;50.702;7.140;2022-09-09T01:22:49;18.10;99.90
9006;DHT22;62284;50.702;7.140;2022-09-09T01:28:22;17.90;99.90
9006;DHT22;62284;50.702;7.140;2022-09-09T01:30:51;17.90;99.90
9006;DHT22;62284;50.702;7.140;2022-09-09T01:33:19;17.80;99.90
9006;DHT22;62284;50.702;7.140;2022-09-09T01:35:50;17.80;99.90
9006;DHT22;62284;50.702;7.140;2022-09-09T01:38:20;17.80;99.90
9006;DHT22;62284;50.702;7.140;2022-09-09T01:40:48;17.90;99.90
9006;DHT22;62284;50.702;7.140;2022-09-09T01:43:20;17.90;99.90
9006;DHT22;62284;50.702;7.140;2022-09-09T01:45:48;18.00;99.90
9006;DHT22;62284;50.702;7.140;2022-09-09T01:48:16;18.00;99.90
9006;DHT22;62284;50.702;7.140;2022-09-09T01:50:44;17.90;99.90
9006;DHT22;62284;50.702;7.140;2022-09-09T01:53:11;18.00;99.90
9006;DHT22;62284;50.702;7.140;2022-09-09T01:55:40;18.00;99.90
9006;DHT22;62284;50.702;7.140;2022-09-09T01:58:20;18.00;99.90
9006;DHT22;62284;50.702;7.140;2022-09-09T02:00:56;18.00;99.90
9006;DHT22;62284;50.702;7.140;2022-09-09T02:03:28;18.10;99.90
9006;DHT22;62284;50.702;7.140;2022-09-09T02:06:00;17.90;99.90
9006;DHT22;62284;50.702;7.140;2022-09-09T02:08:36;17.80;99.90
9006;DHT22;62284;50.702;7.140;2022-09-09T02:11:08;17.80;99.90
9006;DHT22;62284;50.702;7.140;2022-09-09T02:13:40;17.90;99.90
9006;DHT22;62284;50.702;7.140;2022-09-09T02:16:08;18.00;99.90
9006;DHT22;62284;50.702;7.140;2022-09-09T02:18:40;18.00;99.90
9006;DHT22;62284;50.702;7.140;2022-09-09T02:21:10;18.10;99.90
9006;DHT22;62284;50.702;7.140;2022-09-09T02:23:40;18.10;99.90
9006;DHT22;62284;50.702;7.140;2022-09-09T02:26:10;18.10;99.90
9006;DHT22;62284;50.702;7.140;2022-09-09T02:28:40;18.20;99.90
9006;DHT22;62284;50.702;7.140;2022-09-09T02:31:07;18.20;99.90
9006;DHT22;62284;50.702;7.140;2022-09-09T02:33:38;18.10;99.90
9006;DHT22;62284;50.702;7.140;2022-09-09T02:36:08;18.20;99.90
9006;DHT22;62284;50.702;7.140;2022-09-09T02:38:38;18.30;99.80
9006;DHT22;62284;50.702;7.140;2022-09-09T02:41:07;18.10;99.90
9006;DHT22;62284;50.702;7.140;2022-09-09T02:43:34;18.10;99.90
9006;DHT22;62284;50.702;7.140;2022-09-09T02:46:10;18.00;99.90
9006;DHT22;62284;50.702;7.140;2022-09-09T02:48:47;18.10;99.90
9006;DHT22;62284;50.702;7.140;2022-09-09T02:51:24;18.10;99.90
9006;DHT22;62284;50.702;7.140;2022-09-09T02:54:22;18.20;99.90
9006;DHT22;62284;50.702;7.140;2022-09-09T02:56:54;18.10;99.90
9006;DHT22;62284;50.702;7.140;2022-09-09T02:59:22;18.10;99.90
9006;DHT22;62284;50.702;7.140;2022-09-09T03:01:52;18.20;99.90
9006;DHT22;62284;50.702;7.140;2022-09-09T03:04:19;18.20;99.90
9006;DHT22;62284;50.702;7.140;2022-09-09T03:06:46;18.20;99.90
9006;DHT22;62284;50.702;7.140;2022-09-09T03:09:14;18.20;99.90
9006;DHT22;62284;50.702;7.140;2022-09-09T03:11:41;18.30;99.90
9006;DHT22;62284;50.702;7.140;2022-09-09T03:14:08;18.20;99.90
9006;DHT22;62284;50.702;7.140;2022-09-09T03:16:36;18.20;99.90
9006;DHT22;62284;50.702;7.140;2022-09-09T03:19:05;18.20;99.90
9006;DHT22;62284;50.702;7.140;2022-09-09T03:21:31;18.10;99.90
9006;DHT22;62284;50.702;7.140;2022-09-09T03:23:58;18.00;99.90
9006;DHT22;62284;50.702;7.140;2022-09-09T03:26:25;18.00;99.90
9006;DHT22;62284;50.702;7.140;2022-09-09T03:28:54;18.00;99.90
9006;DHT22;62284;50.702;7.140;2022-09-09T03:31:21;18.00;99.90
9006;DHT22;62284;50.702;7.140;2022-09-09T03:33:48;18.00;99.90
9006;DHT22;62284;50.702;7.140;2022-09-09T03:36:18;17.90;99.90
9006;DHT22;62284;50.702;7.140;2022-09-09T03:38:45;17.90;99.90
9006;DHT22;62284;50.702;7.140;2022-09-09T03:41:12;17.80;99.90
9006;DHT22;62284;50.702;7.140;2022-09-09T03:43:42;17.90;99.90
9006;DHT22;62284;50.702;7.140;2022-09-09T03:46:10;18.00;99.90
9006;DHT22;62284;50.702;7.140;2022-09-09T03:48:36;18.00;99.90
9006;DHT22;62284;50.702;7.140;2022-09-09T03:51:03;18.10;99.90
9006;DHT22;62284;50.702;7.140;2022-09-09T03:53:32;18.10;99.90
9006;DHT22;62284;50.702;7.140;2022-09-09T03:56:01;18.20;99.90
9006;DHT22;62284;50.702;7.140;2022-09-09T03:58:35;18.20;99.90
9006;DHT22;62284;50.702;7.140;2022-09-09T04:01:04;18.20;99.90
9006;DHT22;62284;50.702;7.140;2022-09-09T04:03:34;18.30;99.90
9006;DHT22;62284;50.702;7.140;2022-09-09T04:06:02;18.30;99.90
9006;DHT22;62284;50.702;7.140;2022-09-09T04:08:31;18.40;99.90
9006;DHT22;62284;50.702;7.140;2022-09-09T04:10:58;18.50;99.80
9006;DHT22;62284;50.702;7.140;2022-09-09T04:13:27;18.50;99.70
9006;DHT22;62284;50.702;7.140;2022-09-09T04:15:58;18.50;99.80
9006;DHT22;62284;50.702;7.140;2022-09-09T04:18:26;18.50;99.90
9006;DHT22;62284;50.702;7.140;2022-09-09T04:20:54;18.40;99.90
9006;DHT22;62284;50.702;7.140;2022-09-09T04:23:25;18.10;99.90
9006;DHT22;62284;50.702;7.140;2022-09-09T04:25:55;18.10;99.90
9006;DHT22;62284;50.702;7.140;2022-09-09T04:28:24;18.00;99.90
9006;DHT22;62284;50.702;7.140;2022-09-09T04:30:51;18.00;99.90
9006;DHT22;62284;50.702;7.140;2022-09-09T04:33:23;18.00;99.90
9006;DHT22;62284;50.702;7.140;2022-09-09T04:35:52;18.10;99.90
9006;DHT22;62284;50.702;7.140;2022-09-09T04:38:20;18.10;99.90
9006;DHT22;62284;50.702;7.140;2022-09-09T04:40:51;18.00;99.90
9006;DHT22;62284;50.702;7.140;2022-09-09T04:43:23;18.00;99.90
9006;DHT22;62284;50.702;7.140;2022-09-09T04:45:57;17.90;99.90
9006;DHT22;62284;50.702;7.140;2022-09-09T04:48:30;17.90;99.90
9006;DHT22;62284;50.702;7.140;2022-09-09T04:51:04;17.90;99.90
9006;DHT22;62284;50.702;7.140;2022-09-09T04:53:36;17.90;99.90
9006;DHT22;62284;50.702;7.140;2022-09-09T04:56:05;17.90;99.90
9006;DHT22;62284;50.702;7.140;2022-09-09T04:58:35;17.90;99.90
9006;DHT22;62284;50.702;7.140;2022-09-09T05:01:04;17.90;99.90
9006;DHT22;62284;50.702;7.140;2022-09-09T05:03:31;17.90;99.90
9006;DHT22;62284;50.702;7.140;2022-09-09T05:06:03;17.90;99.90
9006;DHT22;62284;50.702;7.140;2022-09-09T05:08:30;18.00;99.90
9006;DHT22;62284;50.702;7.140;2022-09-09T05:10:57;18.20;99.90
9006;DHT22;62284;50.702;7.140;2022-09-09T05:13:25;18.20;99.90
9006;DHT22;62284;50.702;7.140;2022-09-09T05:15:54;18.20;99.70
9006;DHT22;62284;50.702;7.140;2022-09-09T05:18:21;18.20;99.80
9006;DHT22;62284;50.702;7.140;2022-09-09T05:20:48;18.20;99.80
9006;DHT22;62284;50.702;7.140;2022-09-09T05:23:14;18.30;99.90
9006;DHT22;62284;50.702;7.140;2022-09-09T05:25:41;18.40;99.80
9006;DHT22;62284;50.702;7.140;2022-09-09T05:28:09;18.40;99.80
9006;DHT22;62284;50.702;7.140;2022-09-09T05:30:37;18.50;99.80
9006;DHT22;62284;50.702;7.140;2022-09-09T05:33:05;18.50;99.50
9006;DHT22;62284;50.702;7.140;2022-09-09T05:35:34;18.60;99.60
9006;DHT22;62284;50.702;7.140;2022-09-09T05:38:01;18.50;99.80
9006;DHT22;62284;50.702;7.140;2022-09-09T05:40:28;18.50;99.80
9006;DHT22;62284;50.702;7.140;2022-09-09T05:42:59;18.40;99.60
9006;DHT22;62284;50.702;7.140;2022-09-09T05:45:27;18.30;99.90
9006;DHT22;62284;50.702;7.140;2022-09-09T05:47:54;18.30;99.90
9006;DHT22;62284;50.702;7.140;2022-09-09T05:50:22;18.40;99.70
9006;DHT22;62284;50.702;7.140;2022-09-09T05:52:49;18.40;99.50
9006;DHT22;62284;50.702;7.140;2022-09-09T05:55:15;18.50;99.60
9006;DHT22;62284;50.702;7.140;2022-09-09T05:57:48;18.60;99.30
9006;DHT22;62284;50.702;7.140;2022-09-09T06:00:17;19.10;98.40
9006;DHT22;62284;50.702;7.140;2022-09-09T06:02:50;19.00;98.70
9006;DHT22;62284;50.702;7.140;2022-09-09T06:05:17;19.00;98.70
9006;DHT22;62284;50.702;7.140;2022-09-09T06:07:46;18.90;98.90
9006;DHT22;62284;50.702;7.140;2022-09-09T06:10:12;18.90;98.70
9006;DHT22;62284;50.702;7.140;2022-09-09T06:12:40;19.00;98.80
9006;DHT22;62284;50.702;7.140;2022-09-09T06:15:07;18.80;98.70
9006;DHT22;62284;50.702;7.140;2022-09-09T06:17:34;18.80;99.00
9006;DHT22;62284;50.702;7.140;2022-09-09T06:20:02;18.80;98.80
9006;DHT22;62284;50.702;7.140;2022-09-09T06:22:29;18.80;99.00
9006;DHT22;62284;50.702;7.140;2022-09-09T06:24:57;18.80;98.80
9006;DHT22;62284;50.702;7.140;2022-09-09T06:27:27;18.90;98.90
9006;DHT22;62284;50.702;7.140;2022-09-09T06:29:54;18.90;98.60
9006;DHT22;62284;50.702;7.140;2022-09-09T06:32:21;18.90;98.80
9006;DHT22;62284;50.702;7.140;2022-09-09T06:34:47;18.90;98.50
9006;DHT22;62284;50.702;7.140;2022-09-09T06:37:14;19.00;98.40
9006;DHT22;62284;50.702;7.140;2022-09-09T06:39:41;18.80;98.10
9006;DHT22;62284;50.702;7.140;2022-09-09T06:42:09;18.90;98.20
9006;DHT22;62284;50.702;7.140;2022-09-09T06:44:36;19.00;98.10
9006;DHT22;62284;50.702;7.140;2022-09-09T06:47:03;18.90;97.90
9006;DHT22;62284;50.702;7.140;2022-09-09T06:49:31;18.90;97.60
9006;DHT22;62284;50.702;7.140;2022-09-09T06:51:57;19.00;96.80
9006;DHT22;62284;50.702;7.140;2022-09-09T06:54:24;18.80;97.10
9006;DHT22;62284;50.702;7.140;2022-09-09T06:56:51;18.90;97.60
9006;DHT22;62284;50.702;7.140;2022-09-09T06:59:19;18.90;97.10
9006;DHT22;62284;50.702;7.140;2022-09-09T07:01:46;18.80;96.40
9006;DHT22;62284;50.702;7.140;2022-09-09T07:04:13;18.90;96.60
9006;DHT22;62284;50.702;7.140;2022-09-09T07:06:42;19.00;96.80
9006;DHT22;62284;50.702;7.140;2022-09-09T07:09:11;18.80;96.00
9006;DHT22;62284;50.702;7.140;2022-09-09T07:11:40;18.90;96.50
9006;DHT22;62284;50.702;7.140;2022-09-09T07:14:08;19.00;96.30
9006;DHT22;62284;50.702;7.140;2022-09-09T07:16:40;19.10;96.30
9006;DHT22;62284;50.702;7.140;2022-09-09T07:19:07;19.10;95.20
9006;DHT22;62284;50.702;7.140;2022-09-09T07:21:34;19.20;95.00
9006;DHT22;62284;50.702;7.140;2022-09-09T07:24:02;19.20;94.60
9006;DHT22;62284;50.702;7.140;2022-09-09T07:26:32;19.30;94.30
9006;DHT22;62284;50.702;7.140;2022-09-09T07:28:59;19.40;94.20
9006;DHT22;62284;50.702;7.140;2022-09-09T07:31:28;19.50;93.90
9006;DHT22;62284;50.702;7.140;2022-09-09T07:33:57;19.60;93.80
9006;DHT22;62284;50.702;7.140;2022-09-09T07:36:27;19.90;93.10
9006;DHT22;62284;50.702;7.140;2022-09-09T07:38:56;19.90;92.70
9006;DHT22;62284;50.702;7.140;2022-09-09T07:41:25;19.90;92.70
9006;DHT22;62284;50.702;7.140;2022-09-09T07:43:52;19.70;92.10
9006;DHT22;62284;50.702;7.140;2022-09-09T07:46:22;19.60;92.80
9006;DHT22;62284;50.702;7.140;2022-09-09T07:48:52;19.70;92.90
9006;DHT22;62284;50.702;7.140;2022-09-09T07:51:24;20.00;92.70
9006;DHT22;62284;50.702;7.140;2022-09-09T07:53:53;20.00;91.70
9006;DHT22;62284;50.702;7.140;2022-09-09T07:56:20;20.00;91.90
9006;DHT22;62284;50.702;7.140;2022-09-09T07:58:50;20.20;92.10
9006;DHT22;62284;50.702;7.140;2022-09-09T08:01:19;20.20;92.10
9006;DHT22;62284;50.702;7.140;2022-09-09T08:03:47;20.30;92.00
9006;DHT22;62284;50.702;7.140;2022-09-09T08:06:18;20.40;91.40
9006;DHT22;62284;50.702;7.140;2022-09-09T08:08:50;20.30;90.70
9006;DHT22;62284;50.702;7.140;2022-09-09T08:11:17;20.30;91.60
9006;DHT22;62284;50.702;7.140;2022-09-09T08:13:44;20.20;91.40
9006;DHT22;62284;50.702;7.140;2022-09-09T08:16:15;19.90;91.60
9006;DHT22;62284;50.702;7.140;2022-09-09T08:18:42;20.00;90.90
9006;DHT22;62284;50.702;7.140;2022-09-09T08:21:11;20.20;91.50
9006;DHT22;62284;50.702;7.140;2022-09-09T08:23:39;20.50;90.40
9006;DHT22;62284;50.702;7.140;2022-09-09T08:26:10;20.70;90.30
9006;DHT22;62284;50.702;7.140;2022-09-09T08:28:37;20.70;89.20
9006;DHT22;62284;50.702;7.140;2022-09-09T08:31:07;20.60;87.90
9006;DHT22;62284;50.702;7.140;2022-09-09T08:33:33;20.70;88.80
9006;DHT22;62284;50.702;7.140;2022-09-09T08:36:03;20.60;88.30
9006;DHT22;62284;50.702;7.140;2022-09-09T08:38:30;20.20;88.50
9006;DHT22;62284;50.702;7.140;2022-09-09T08:41:03;20.30;87.60
9006;DHT22;62284;50.702;7.140;2022-09-09T08:43:35;20.60;89.10
9006;DHT22;62284;50.702;7.140;2022-09-09T08:46:07;21.10;86.40
9006;DHT22;62284;50.702;7.140;2022-09-09T08:48:44;21.20;85.20
9006;DHT22;62284;50.702;7.140;2022-09-09T08:51:13;21.30;83.30
9006;DHT22;62284;50.702;7.140;2022-09-09T08:53:43;21.10;83.00
9006;DHT22;62284;50.702;7.140;2022-09-09T08:56:14;20.60;82.80
9006;DHT22;62284;50.702;7.140;2022-09-09T08:58:47;20.60;84.40
9006;DHT22;62284;50.702;7.140;2022-09-09T09:01:28;21.00;84.40
9006;DHT22;62284;50.702;7.140;2022-09-09T09:04:04;20.90;82.20
9006;DHT22;62284;50.702;7.140;2022-09-09T09:06:54;20.80;82.00
9006;DHT22;62284;50.702;7.140;2022-09-09T09:09:31;20.80;82.40
9006;DHT22;62284;50.702;7.140;2022-09-09T09:12:10;21.20;82.50
9006;DHT22;62284;50.702;7.140;2022-09-09T09:14:43;21.50;77.40
9006;DHT22;62284;50.702;7.140;2022-09-09T09:17:13;21.40;78.60
9006;DHT22;62284;50.702;7.140;2022-09-09T09:19:42;21.40;77.80
9006;DHT22;62284;50.702;7.140;2022-09-09T09:22:16;21.50;78.60
9006;DHT22;62284;50.702;7.140;2022-09-09T09:24:50;21.80;77.90
9006;DHT22;62284;50.702;7.140;2022-09-09T09:27:25;21.80;75.50
9006;DHT22;62284;50.702;7.140;2022-09-09T09:29:59;21.70;75.50
9006;DHT22;62284;50.702;7.140;2022-09-09T09:32:29;22.00;75.80
9006;DHT22;62284;50.702;7.140;2022-09-09T09:34:58;22.20;74.40
9006;DHT22;62284;50.702;7.140;2022-09-09T09:37:29;22.00;73.80
9006;DHT22;62284;50.702;7.140;2022-09-09T09:40:07;21.90;73.10
9006;DHT22;62284;50.702;7.140;2022-09-09T09:42:34;22.00;73.50
9006;DHT22;62284;50.702;7.140;2022-09-09T09:45:16;21.70;72.90
9006;DHT22;62284;50.702;7.140;2022-09-09T09:47:43;21.50;72.80
9006;DHT22;62284;50.702;7.140;2022-09-09T09:50:17;21.60;73.30
9006;DHT22;62284;50.702;7.140;2022-09-09T09:52:54;21.60;71.80
9006;DHT22;62284;50.702;7.140;2022-09-09T09:55:22;21.70;72.50
9006;DHT22;62284;50.702;7.140;2022-09-09T09:57:50;21.50;72.50
9006;DHT22;62284;50.702;7.140;2022-09-09T10:00:21;21.60;73.30
9006;DHT22;62284;50.702;7.140;2022-09-09T10:02:49;21.80;72.30
9006;DHT22;62284;50.702;7.140;2022-09-09T10:05:19;22.50;70.60
9006;DHT22;62284;50.702;7.140;2022-09-09T10:07:57;22.80;68.80
9006;DHT22;62284;50.702;7.140;2022-09-09T10:10:46;23.00;68.10
9006;DHT22;62284;50.702;7.140;2022-09-09T10:13:19;23.30;66.40
9006;DHT22;62284;50.702;7.140;2022-09-09T10:15:59;23.60;66.20
9006;DHT22;62284;50.702;7.140;2022-09-09T10:18:45;23.70;63.60
9006;DHT22;62284;50.702;7.140;2022-09-09T10:21:24;23.70;63.60
9006;DHT22;62284;50.702;7.140;2022-09-09T10:24:07;23.30;63.90
9006;DHT22;62284;50.702;7.140;2022-09-09T10:26:42;23.40;63.60
9006;DHT22;62284;50.702;7.140;2022-09-09T10:29:30;23.50;62.90
9006;DHT22;62284;50.702;7.140;2022-09-09T10:32:09;23.50;62.60
9006;DHT22;62284;50.702;7.140;2022-09-09T10:34:53;24.00;62.40
9006;DHT22;62284;50.702;7.140;2022-09-09T10:37:33;24.00;61.70
9006;DHT22;62284;50.702;7.140;2022-09-09T10:40:21;23.40;63.10
9006;DHT22;62284;50.702;7.140;2022-09-09T10:42:51;24.00;61.40
9006;DHT22;62284;50.702;7.140;2022-09-09T10:45:29;25.90;56.60
9006;DHT22;62284;50.702;7.140;2022-09-09T10:48:16;26.90;54.40
9006;DHT22;62284;50.702;7.140;2022-09-09T10:50:51;27.70;52.60
9006;DHT22;62284;50.702;7.140;2022-09-09T10:53:30;27.30;50.50
9006;DHT22;62284;50.702;7.140;2022-09-09T10:56:02;25.70;52.70
9006;DHT22;62284;50.702;7.140;2022-09-09T10:58:36;24.80;54.70
9006;DHT22;62284;50.702;7.140;2022-09-09T11:01:12;23.90;56.70
9006;DHT22;62284;50.702;7.140;2022-09-09T11:03:43;24.00;58.40
9006;DHT22;62284;50.702;7.140;2022-09-09T11:06:16;25.50;56.10
9006;DHT22;62284;50.702;7.140;2022-09-09T11:08:44;25.50;55.10
9006;DHT22;62284;50.702;7.140;2022-09-09T11:11:16;25.10;55.70
9006;DHT22;62284;50.702;7.140;2022-09-09T11:13:47;24.60;55.00
9006;DHT22;62284;50.702;7.140;2022-09-09T11:16:23;24.10;57.50
9006;DHT22;62284;50.702;7.140;2022-09-09T11:18:58;23.70;58.30
9006;DHT22;62284;50.702;7.140;2022-09-09T11:21:29;24.20;59.30
9006;DHT22;62284;50.702;7.140;2022-09-09T11:24:00;25.40;57.60
9006;DHT22;62284;50.702;7.140;2022-09-09T11:26:33;29.00;52.30
9006;DHT22;62284;50.702;7.140;2022-09-09T11:29:25;30.00;47.10
9006;DHT22;62284;50.702;7.140;2022-09-09T11:32:06;32.40;44.30
9006;DHT22;62284;50.702;7.140;2022-09-09T11:34:46;33.90;39.00
9006;DHT22;62284;50.702;7.140;2022-09-09T11:37:39;34.30;38.90
9006;DHT22;62284;50.702;7.140;2022-09-09T11:40:19;34.90;34.60
9006;DHT22;62284;50.702;7.140;2022-09-09T11:42:49;35.10;34.90
9006;DHT22;62284;50.702;7.140;2022-09-09T11:45:28;34.90;34.60
9006;DHT22;62284;50.702;7.140;2022-09-09T11:47:57;34.70;35.10
9006;DHT22;62284;50.702;7.140;2022-09-09T11:50:31;33.80;37.20
9006;DHT22;62284;50.702;7.140;2022-09-09T11:53:20;32.30;35.60
9006;DHT22;62284;50.702;7.140;2022-09-09T11:56:11;29.50;40.60
9006;DHT22;62284;50.702;7.140;2022-09-09T11:58:41;28.40;42.70
9006;DHT22;62284;50.702;7.140;2022-09-09T12:01:15;26.90;45.30
9006;DHT22;62284;50.702;7.140;2022-09-09T12:03:45;27.10;46.20
9006;DHT22;62284;50.702;7.140;2022-09-09T12:06:17;27.50;47.00
9006;DHT22;62284;50.702;7.140;2022-09-09T12:08:48;28.00;45.30
9006;DHT22;62284;50.702;7.140;2022-09-09T12:11:28;27.60;45.00
9006;DHT22;62284;50.702;7.140;2022-09-09T12:13:57;27.50;45.80
9006;DHT22;62284;50.702;7.140;2022-09-09T12:16:31;27.00;45.80
9006;DHT22;62284;50.702;7.140;2022-09-09T12:19:14;26.10;48.90
9006;DHT22;62284;50.702;7.140;2022-09-09T12:21:48;26.20;48.90
9006;DHT22;62284;50.702;7.140;2022-09-09T12:24:21;25.70;49.20
9006;DHT22;62284;50.702;7.140;2022-09-09T12:26:56;26.00;49.40
9006;DHT22;62284;50.702;7.140;2022-09-09T12:29:28;26.10;48.60
9006;DHT22;62284;50.702;7.140;2022-09-09T12:32:02;25.40;49.90
9006;DHT22;62284;50.702;7.140;2022-09-09T12:34:38;25.60;50.20
9006;DHT22;62284;50.702;7.140;2022-09-09T12:37:14;25.40;50.80
9006;DHT22;62284;50.702;7.140;2022-09-09T12:39:46;25.20;51.00
9006;DHT22;62284;50.702;7.140;2022-09-09T12:42:18;24.80;51.60
9006;DHT22;62284;50.702;7.140;2022-09-09T12:44:56;24.70;52.50
9006;DHT22;62284;50.702;7.140;2022-09-09T12:47:27;24.80;53.20
9006;DHT22;62284;50.702;7.140;2022-09-09T12:49:56;24.70;52.40
9006;DHT22;62284;50.702;7.140;2022-09-09T12:52:27;24.50;52.90
9006;DHT22;62284;50.702;7.140;2022-09-09T12:54:57;24.50;54.00
9006;DHT22;62284;50.702;7.140;2022-09-09T12:57:26;24.40;53.30
9006;DHT22;62284;50.702;7.140;2022-09-09T13:00:10;24.50;53.70
9006;DHT22;62284;50.702;7.140;2022-09-09T13:02:46;24.00;52.80
9006;DHT22;62284;50.702;7.140;2022-09-09T13:05:16;23.90;54.10
9006;DHT22;62284;50.702;7.140;2022-09-09T13:07:45;24.20;54.30
9006;DHT22;62284;50.702;7.140;2022-09-09T13:10:14;24.30;52.90
9006;DHT22;62284;50.702;7.140;2022-09-09T13:12:42;24.00;52.90
9006;DHT22;62284;50.702;7.140;2022-09-09T13:15:16;23.80;54.10
9006;DHT22;62284;50.702;7.140;2022-09-09T13:17:49;23.60;54.50
9006;DHT22;62284;50.702;7.140;2022-09-09T13:20:18;23.60;55.00
9006;DHT22;62284;50.702;7.140;2022-09-09T13:22:48;23.70;54.40
9006;DHT22;62284;50.702;7.140;2022-09-09T13:25:21;23.60;56.20
9006;DHT22;62284;50.702;7.140;2022-09-09T13:27:55;23.50;57.40
9006;DHT22;62284;50.702;7.140;2022-09-09T13:30:25;22.90;59.50
9006;DHT22;62284;50.702;7.140;2022-09-09T13:33:04;22.80;63.50
9006;DHT22;62284;50.702;7.140;2022-09-09T13:35:32;24.30;63.70
9006;DHT22;62284;50.702;7.140;2022-09-09T13:38:07;26.50;57.30
9006;DHT22;62284;50.702;7.140;2022-09-09T13:40:35;28.00;52.90
9006;DHT22;62284;50.702;7.140;2022-09-09T13:43:02;29.50;49.80
9006;DHT22;62284;50.702;7.140;2022-09-09T13:45:30;30.10;46.30
9006;DHT22;62284;50.702;7.140;2022-09-09T13:48:08;29.60;47.80
9006;DHT22;62284;50.702;7.140;2022-09-09T13:50:36;28.20;48.70
9006;DHT22;62284;50.702;7.140;2022-09-09T13:53:04;26.60;50.70
9006;DHT22;62284;50.702;7.140;2022-09-09T13:55:31;25.50;52.40
9006;DHT22;62284;50.702;7.140;2022-09-09T13:57:59;25.00;53.70
9006;DHT22;62284;50.702;7.140;2022-09-09T14:00:29;24.90;54.10
9006;DHT22;62284;50.702;7.140;2022-09-09T14:02:57;24.80;54.90
9006;DHT22;62284;50.702;7.140;2022-09-09T14:05:27;24.60;55.10
9006;DHT22;62284;50.702;7.140;2022-09-09T14:07:54;24.60;54.90
9006;DHT22;62284;50.702;7.140;2022-09-09T14:10:22;24.90;56.40
9006;DHT22;62284;50.702;7.140;2022-09-09T14:12:49;24.90;55.00
9006;DHT22;62284;50.702;7.140;2022-09-09T14:15:17;25.00;54.60
9006;DHT22;62284;50.702;7.140;2022-09-09T14:17:44;24.40;56.10
9006;DHT22;62284;50.702;7.140;2022-09-09T14:20:11;23.80;57.10
9006;DHT22;62284;50.702;7.140;2022-09-09T14:22:40;23.90;58.70
9006;DHT22;62284;50.702;7.140;2022-09-09T14:25:08;26.10;54.90
9006;DHT22;62284;50.702;7.140;2022-09-09T14:27:36;28.20;49.90
9006;DHT22;62284;50.702;7.140;2022-09-09T14:30:05;29.20;47.90
9006;DHT22;62284;50.702;7.140;2022-09-09T14:32:33;28.60;48.10
9006;DHT22;62284;50.702;7.140;2022-09-09T14:34:59;27.60;48.50
9006;DHT22;62284;50.702;7.140;2022-09-09T14:37:27;26.70;50.90
9006;DHT22;62284;50.702;7.140;2022-09-09T14:39:55;25.60;51.80
9006;DHT22;62284;50.702;7.140;2022-09-09T14:42:23;24.50;54.90
9006;DHT22;62284;50.702;7.140;2022-09-09T14:44:52;24.20;56.60
9006;DHT22;62284;50.702;7.140;2022-09-09T14:47:19;24.20;57.30
9006;DHT22;62284;50.702;7.140;2022-09-09T14:49:46;23.80;57.80
9006;DHT22;62284;50.702;7.140;2022-09-09T14:52:15;24.90;58.50
9006;DHT22;62284;50.702;7.140;2022-09-09T14:54:42;28.20;51.50
9006;DHT22;62284;50.702;7.140;2022-09-09T14:57:09;32.10;45.50
9006;DHT22;62284;50.702;7.140;2022-09-09T14:59:36;33.50;40.40
9006;DHT22;62284;50.702;7.140;2022-09-09T15:02:05;31.60;42.50
9006;DHT22;62284;50.702;7.140;2022-09-09T15:04:32;33.00;40.10
9006;DHT22;62284;50.702;7.140;2022-09-09T15:06:59;31.20;42.20
9006;DHT22;62284;50.702;7.140;2022-09-09T15:09:26;29.20;45.80
9006;DHT22;62284;50.702;7.140;2022-09-09T15:11:52;27.60;48.90
9006;DHT22;62284;50.702;7.140;2022-09-09T15:14:19;26.90;51.30
9006;DHT22;62284;50.702;7.140;2022-09-09T15:16:46;26.20;52.60
9006;DHT22;62284;50.702;7.140;2022-09-09T15:19:14;25.70;54.70
9006;DHT22;62284;50.702;7.140;2022-09-09T15:21:41;24.90;56.70
9006;DHT22;62284;50.702;7.140;2022-09-09T15:24:08;24.60;57.90
9006;DHT22;62284;50.702;7.140;2022-09-09T15:26:35;24.30;58.70
9006;DHT22;62284;50.702;7.140;2022-09-09T15:29:04;24.20;59.80
9006;DHT22;62284;50.702;7.140;2022-09-09T15:31:32;24.00;60.60
9006;DHT22;62284;50.702;7.140;2022-09-09T15:34:00;24.00;60.70
9006;DHT22;62284;50.702;7.140;2022-09-09T15:36:30;23.80;60.30
9006;DHT22;62284;50.702;7.140;2022-09-09T15:38:57;23.50;61.70
9006;DHT22;62284;50.702;7.140;2022-09-09T15:41:24;23.40;62.10
9006;DHT22;62284;50.702;7.140;2022-09-09T15:43:53;23.30;62.30
9006;DHT22;62284;50.702;7.140;2022-09-09T15:46:28;23.10;62.30
9006;DHT22;62284;50.702;7.140;2022-09-09T15:48:56;23.10;63.30
9006;DHT22;62284;50.702;7.140;2022-09-09T15:51:24;23.40;67.50
9006;DHT22;62284;50.702;7.140;2022-09-09T15:53:56;23.90;64.70
9006;DHT22;62284;50.702;7.140;2022-09-09T15:56:24;24.50;65.50
9006;DHT22;62284;50.702;7.140;2022-09-09T15:58:52;24.00;64.60
9006;DHT22;62284;50.702;7.140;2022-09-09T16:01:19;23.60;65.90
9006;DHT22;62284;50.702;7.140;2022-09-09T16:03:46;23.00;66.90
9006;DHT22;62284;50.702;7.140;2022-09-09T16:06:16;22.80;67.70
9006;DHT22;62284;50.702;7.140;2022-09-09T16:08:45;22.70;68.30
9006;DHT22;62284;50.702;7.140;2022-09-09T16:11:15;22.70;68.70